Redondo, Washington
Current Conditions -  °F | °C
As of 10:53 PM on Wednesday 26 Nov 2014 (Local Time) from KSEA Reporting Station
Overcast Overcast  
Wind Chill: 56°   Ceiling: 8000
Heat Index: 56°   Visibility: 10mi
Dew Point: 50°   Wind: 9mph
Humidity: 80%   Direction: 180°S
Pressure: 29.88"   Gusts: NA
Location:  47.34°N, 122.33°W
Report Text: KSEA 270653Z 18008KT 10SM FEW065 OVC080 13/10 A2988 RMK AO2 SLP125 T01330100
Loading
Personal Weather Stations






























Interactive Weather Map New forecast layout! Learn more

10-Day Weather Forecast

Advertisements
Track Severe Weather on mobile